sensor_id;sensor_type;location;lat;lon;timestamp;temperature;humidity
11840;DHT22;5979;50.800;4.904;2023-04-01T00:00:22;10.30;99.90
11840;DHT22;5979;50.800;4.904;2023-04-01T00:02:48;10.30;99.90
11840;DHT22;5979;50.800;4.904;2023-04-01T00:05:14;10.30;99.90
11840;DHT22;5979;50.800;4.904;2023-04-01T00:07:40;10.30;99.90
11840;DHT22;5979;50.800;4.904;2023-04-01T00:10:07;10.20;99.90
11840;DHT22;5979;50.800;4.904;2023-04-01T00:12:34;10.20;99.90
11840;DHT22;5979;50.800;4.904;2023-04-01T00:15:00;10.20;99.90
11840;DHT22;5979;50.800;4.904;2023-04-01T00:17:26;10.20;99.90
11840;DHT22;5979;50.800;4.904;2023-04-01T00:19:54;10.20;99.90
11840;DHT22;5979;50.800;4.904;2023-04-01T00:22:21;10.30;99.90
11840;DHT22;5979;50.800;4.904;2023-04-01T00:24:47;10.20;99.90
11840;DHT22;5979;50.800;4.904;2023-04-01T00:27:13;10.20;99.90
11840;DHT22;5979;50.800;4.904;2023-04-01T00:29:42;10.20;99.90
11840;DHT22;5979;50.800;4.904;2023-04-01T00:32:08;10.20;99.90
11840;DHT22;5979;50.800;4.904;2023-04-01T00:34:34;10.20;99.90
11840;DHT22;5979;50.800;4.904;2023-04-01T00:37:00;10.20;99.90
11840;DHT22;5979;50.800;4.904;2023-04-01T00:39:28;10.30;99.90
11840;DHT22;5979;50.800;4.904;2023-04-01T00:41:54;10.30;99.90
11840;DHT22;5979;50.800;4.904;2023-04-01T00:44:27;10.20;99.90
11840;DHT22;5979;50.800;4.904;2023-04-01T00:46:53;10.30;99.90
11840;DHT22;5979;50.800;4.904;2023-04-01T00:49:23;10.20;99.90
11840;DHT22;5979;50.800;4.904;2023-04-01T00:51:54;10.20;99.90
11840;DHT22;5979;50.800;4.904;2023-04-01T00:54:22;10.20;99.90
11840;DHT22;5979;50.800;4.904;2023-04-01T00:57:02;10.20;99.90
11840;DHT22;5979;50.800;4.904;2023-04-01T00:59:35;10.20;99.90
11840;DHT22;5979;50.800;4.904;2023-04-01T01:02:04;10.20;99.90
11840;DHT22;5979;50.800;4.904;2023-04-01T01:04:33;10.20;99.90
11840;DHT22;5979;50.800;4.904;2023-04-01T01:09:42;10.20;99.90
11840;DHT22;5979;50.800;4.904;2023-04-01T01:37:16;10.10;99.90
11840;DHT22;5979;50.800;4.904;2023-04-01T01:39:46;10.10;99.90
11840;DHT22;5979;50.800;4.904;2023-04-01T01:42:15;10.10;99.90
11840;DHT22;5979;50.800;4.904;2023-04-01T01:44:44;10.10;99.90
11840;DHT22;5979;50.800;4.904;2023-04-01T01:47:11;10.10;99.90
11840;DHT22;5979;50.800;4.904;2023-04-01T01:49:39;10.10;99.90
11840;DHT22;5979;50.800;4.904;2023-04-01T01:52:05;10.10;99.90
11840;DHT22;5979;50.800;4.904;2023-04-01T01:54:31;10.10;99.90
11840;DHT22;5979;50.800;4.904;2023-04-01T01:57:06;10.10;99.90
11840;DHT22;5979;50.800;4.904;2023-04-01T01:59:33;10.10;99.90
11840;DHT22;5979;50.800;4.904;2023-04-01T02:02:00;10.10;99.90
11840;DHT22;5979;50.800;4.904;2023-04-01T02:04:37;10.10;99.90
11840;DHT22;5979;50.800;4.904;2023-04-01T02:07:08;10.10;99.90
11840;DHT22;5979;50.800;4.904;2023-04-01T02:09:36;10.10;99.90
11840;DHT22;5979;50.800;4.904;2023-04-01T02:12:10;10.20;99.90
11840;DHT22;5979;50.800;4.904;2023-04-01T02:17:25;10.10;99.90
11840;DHT22;5979;50.800;4.904;2023-04-01T02:22:23;10.10;99.90
11840;DHT22;5979;50.800;4.904;2023-04-01T02:24:52;10.10;99.90
11840;DHT22;5979;50.800;4.904;2023-04-01T02:27:19;10.10;99.90
11840;DHT22;5979;50.800;4.904;2023-04-01T02:29:45;10.10;99.90
11840;DHT22;5979;50.800;4.904;2023-04-01T02:32:13;10.10;99.90
11840;DHT22;5979;50.800;4.904;2023-04-01T02:34:39;10.10;99.90
11840;DHT22;5979;50.800;4.904;2023-04-01T02:37:05;10.10;99.90
11840;DHT22;5979;50.800;4.904;2023-04-01T02:39:31;10.10;99.90
11840;DHT22;5979;50.800;4.904;2023-04-01T02:41:56;10.10;99.90
11840;DHT22;5979;50.800;4.904;2023-04-01T02:44:22;10.10;99.90
11840;DHT22;5979;50.800;4.904;2023-04-01T02:46:48;10.10;99.90
11840;DHT22;5979;50.800;4.904;2023-04-01T02:49:13;10.10;99.90
11840;DHT22;5979;50.800;4.904;2023-04-01T02:51:39;10.10;99.90
11840;DHT22;5979;50.800;4.904;2023-04-01T02:54:05;10.10;99.90
11840;DHT22;5979;50.800;4.904;2023-04-01T02:56:30;10.10;99.90
11840;DHT22;5979;50.800;4.904;2023-04-01T02:58:56;10.10;99.90
11840;DHT22;5979;50.800;4.904;2023-04-01T03:01:22;10.10;99.90
11840;DHT22;5979;50.800;4.904;2023-04-01T03:03:48;10.10;99.90
11840;DHT22;5979;50.800;4.904;2023-04-01T03:06:15;10.10;99.90
11840;DHT22;5979;50.800;4.904;2023-04-01T03:08:41;10.10;99.90
11840;DHT22;5979;50.800;4.904;2023-04-01T03:11:07;10.10;99.90
11840;DHT22;5979;50.800;4.904;2023-04-01T03:13:32;10.10;99.90
11840;DHT22;5979;50.800;4.904;2023-04-01T03:15:58;10.00;99.90
11840;DHT22;5979;50.800;4.904;2023-04-01T03:18:24;10.00;99.90
11840;DHT22;5979;50.800;4.904;2023-04-01T03:20:50;10.00;99.90
11840;DHT22;5979;50.800;4.904;2023-04-01T03:23:16;10.00;99.90
11840;DHT22;5979;50.800;4.904;2023-04-01T03:25:45;10.00;99.90
11840;DHT22;5979;50.800;4.904;2023-04-01T03:28:10;10.00;99.90
11840;DHT22;5979;50.800;4.904;2023-04-01T03:30:37;10.00;99.90
11840;DHT22;5979;50.800;4.904;2023-04-01T03:33:03;10.00;99.90
11840;DHT22;5979;50.800;4.904;2023-04-01T03:35:29;10.00;99.90
11840;DHT22;5979;50.800;4.904;2023-04-01T03:37:55;10.00;99.90
11840;DHT22;5979;50.800;4.904;2023-04-01T03:40:21;10.00;99.90
11840;DHT22;5979;50.800;4.904;2023-04-01T03:42:47;10.00;99.90
11840;DHT22;5979;50.800;4.904;2023-04-01T03:45:13;10.00;99.90
11840;DHT22;5979;50.800;4.904;2023-04-01T03:47:39;10.00;99.90
11840;DHT22;5979;50.800;4.904;2023-04-01T03:50:06;10.00;99.90
11840;DHT22;5979;50.800;4.904;2023-04-01T03:52:32;10.00;99.90
11840;DHT22;5979;50.800;4.904;2023-04-01T03:54:58;10.00;99.90
11840;DHT22;5979;50.800;4.904;2023-04-01T03:57:23;10.00;99.90
11840;DHT22;5979;50.800;4.904;2023-04-01T03:59:49;10.00;99.90
11840;DHT22;5979;50.800;4.904;2023-04-01T04:02:15;10.00;99.90
11840;DHT22;5979;50.800;4.904;2023-04-01T04:04:41;10.00;99.90
11840;DHT22;5979;50.800;4.904;2023-04-01T04:07:06;10.00;99.90
11840;DHT22;5979;50.800;4.904;2023-04-01T04:09:32;10.00;99.90
11840;DHT22;5979;50.800;4.904;2023-04-01T04:11:59;10.00;99.90
11840;DHT22;5979;50.800;4.904;2023-04-01T04:14:24;9.90;99.90
11840;DHT22;5979;50.800;4.904;2023-04-01T04:16:50;10.00;99.90
11840;DHT22;5979;50.800;4.904;2023-04-01T04:19:16;9.90;99.90
11840;DHT22;5979;50.800;4.904;2023-04-01T04:21:42;10.00;99.90
11840;DHT22;5979;50.800;4.904;2023-04-01T04:24:08;9.90;99.90
11840;DHT22;5979;50.800;4.904;2023-04-01T04:26:34;10.00;99.90
11840;DHT22;5979;50.800;4.904;2023-04-01T04:29:00;9.90;99.90
11840;DHT22;5979;50.800;4.904;2023-04-01T04:31:26;9.90;99.90
11840;DHT22;5979;50.800;4.904;2023-04-01T04:33:53;10.00;99.90
11840;DHT22;5979;50.800;4.904;2023-04-01T04:36:21;9.90;99.90
11840;DHT22;5979;50.800;4.904;2023-04-01T04:38:47;9.90;99.90
11840;DHT22;5979;50.800;4.904;2023-04-01T04:41:14;10.00;99.90
11840;DHT22;5979;50.800;4.904;2023-04-01T04:43:41;10.00;99.90
11840;DHT22;5979;50.800;4.904;2023-04-01T04:46:10;9.90;99.90
11840;DHT22;5979;50.800;4.904;2023-04-01T04:48:36;9.90;99.90
11840;DHT22;5979;50.800;4.904;2023-04-01T04:51:02;9.90;99.90
11840;DHT22;5979;50.800;4.904;2023-04-01T04:53:28;9.90;99.90
11840;DHT22;5979;50.800;4.904;2023-04-01T04:55:55;9.90;99.90
11840;DHT22;5979;50.800;4.904;2023-04-01T04:58:20;9.90;99.90
11840;DHT22;5979;50.800;4.904;2023-04-01T05:00:46;9.90;99.90
11840;DHT22;5979;50.800;4.904;2023-04-01T05:03:12;9.90;99.90
11840;DHT22;5979;50.800;4.904;2023-04-01T05:05:39;9.90;99.90
11840;DHT22;5979;50.800;4.904;2023-04-01T05:08:05;9.90;99.90
11840;DHT22;5979;50.800;4.904;2023-04-01T05:10:31;9.90;99.90
11840;DHT22;5979;50.800;4.904;2023-04-01T05:12:58;9.90;99.90
11840;DHT22;5979;50.800;4.904;2023-04-01T05:15:24;9.80;99.90
11840;DHT22;5979;50.800;4.904;2023-04-01T05:17:50;9.80;99.90
11840;DHT22;5979;50.800;4.904;2023-04-01T05:20:16;9.80;99.90
11840;DHT22;5979;50.800;4.904;2023-04-01T05:22:43;9.90;99.90
11840;DHT22;5979;50.800;4.904;2023-04-01T05:25:09;9.90;99.90
11840;DHT22;5979;50.800;4.904;2023-04-01T05:27:34;9.90;99.90
11840;DHT22;5979;50.800;4.904;2023-04-01T05:30:00;9.90;99.90
11840;DHT22;5979;50.800;4.904;2023-04-01T05:32:26;9.90;99.90
11840;DHT22;5979;50.800;4.904;2023-04-01T05:34:52;9.90;99.90
11840;DHT22;5979;50.800;4.904;2023-04-01T05:37:19;9.90;99.90
11840;DHT22;5979;50.800;4.904;2023-04-01T05:39:45;9.90;99.90
11840;DHT22;5979;50.800;4.904;2023-04-01T05:42:10;9.90;99.90
11840;DHT22;5979;50.800;4.904;2023-04-01T05:44:36;9.90;99.90
11840;DHT22;5979;50.800;4.904;2023-04-01T05:47:05;9.90;99.90
11840;DHT22;5979;50.800;4.904;2023-04-01T05:49:32;9.90;99.90
11840;DHT22;5979;50.800;4.904;2023-04-01T05:51:58;9.90;99.90
11840;DHT22;5979;50.800;4.904;2023-04-01T05:54:24;9.90;99.90
11840;DHT22;5979;50.800;4.904;2023-04-01T05:56:50;9.90;99.90
11840;DHT22;5979;50.800;4.904;2023-04-01T05:59:15;9.90;99.90
11840;DHT22;5979;50.800;4.904;2023-04-01T06:01:42;9.90;99.90
11840;DHT22;5979;50.800;4.904;2023-04-01T06:04:14;10.00;99.90
11840;DHT22;5979;50.800;4.904;2023-04-01T06:06:41;10.00;99.90
11840;DHT22;5979;50.800;4.904;2023-04-01T06:09:26;10.00;99.90
11840;DHT22;5979;50.800;4.904;2023-04-01T06:17:52;10.00;99.90
11840;DHT22;5979;50.800;4.904;2023-04-01T06:26:11;10.00;99.90
11840;DHT22;5979;50.800;4.904;2023-04-01T06:36:56;10.00;99.90
11840;DHT22;5979;50.800;4.904;2023-04-01T06:42:30;10.10;99.90
11840;DHT22;5979;50.800;4.904;2023-04-01T06:56:18;10.10;99.90
11840;DHT22;5979;50.800;4.904;2023-04-01T07:01:26;10.20;99.90
11840;DHT22;5979;50.800;4.904;2023-04-01T07:04:00;10.10;99.90
11840;DHT22;5979;50.800;4.904;2023-04-01T07:06:43;10.20;99.90
11840;DHT22;5979;50.800;4.904;2023-04-01T07:09:18;10.20;99.90
11840;DHT22;5979;50.800;4.904;2023-04-01T07:11:45;10.20;99.90
11840;DHT22;5979;50.800;4.904;2023-04-01T07:14:19;10.30;99.90
11840;DHT22;5979;50.800;4.904;2023-04-01T07:16:54;10.30;99.90
11840;DHT22;5979;50.800;4.904;2023-04-01T07:22:23;10.30;99.90
11840;DHT22;5979;50.800;4.904;2023-04-01T07:24:52;10.30;99.90
11840;DHT22;5979;50.800;4.904;2023-04-01T07:27:19;10.30;99.90
11840;DHT22;5979;50.800;4.904;2023-04-01T07:29:45;10.20;99.90
11840;DHT22;5979;50.800;4.904;2023-04-01T07:32:31;10.30;99.90
11840;DHT22;5979;50.800;4.904;2023-04-01T07:37:55;10.40;99.90
11840;DHT22;5979;50.800;4.904;2023-04-01T07:48:49;10.40;99.90
11840;DHT22;5979;50.800;4.904;2023-04-01T07:51:43;10.50;99.90
11840;DHT22;5979;50.800;4.904;2023-04-01T07:54:23;10.40;99.90
11840;DHT22;5979;50.800;4.904;2023-04-01T07:59:58;10.50;99.90
11840;DHT22;5979;50.800;4.904;2023-04-01T08:02:42;10.60;99.90
11840;DHT22;5979;50.800;4.904;2023-04-01T08:05:30;10.60;99.90
11840;DHT22;5979;50.800;4.904;2023-04-01T08:16:18;10.80;99.90
11840;DHT22;5979;50.800;4.904;2023-04-01T08:21:43;10.80;99.90
11840;DHT22;5979;50.800;4.904;2023-04-01T08:24:33;10.90;99.90
11840;DHT22;5979;50.800;4.904;2023-04-01T08:27:06;11.00;99.90
11840;DHT22;5979;50.800;4.904;2023-04-01T08:30:26;11.00;99.90
11840;DHT22;5979;50.800;4.904;2023-04-01T08:32:58;11.00;99.90
11840;DHT22;5979;50.800;4.904;2023-04-01T08:35:26;10.90;99.90
11840;DHT22;5979;50.800;4.904;2023-04-01T08:37:55;10.90;99.90
11840;DHT22;5979;50.800;4.904;2023-04-01T09:01:09;11.00;99.90
11840;DHT22;5979;50.800;4.904;2023-04-01T09:05:56;11.10;99.90
11840;DHT22;5979;50.800;4.904;2023-04-01T09:14:21;11.20;99.90
11840;DHT22;5979;50.800;4.904;2023-04-01T09:25:44;11.40;99.90
11840;DHT22;5979;50.800;4.904;2023-04-01T09:28:28;11.50;99.90
11840;DHT22;5979;50.800;4.904;2023-04-01T09:37:18;11.80;99.90
11840;DHT22;5979;50.800;4.904;2023-04-01T09:45:01;12.00;99.90
11840;DHT22;5979;50.800;4.904;2023-04-01T09:47:45;12.00;99.90
11840;DHT22;5979;50.800;4.904;2023-04-01T09:50:34;12.00;99.90
11840;DHT22;5979;50.800;4.904;2023-04-01T10:01:38;12.00;99.90
11840;DHT22;5979;50.800;4.904;2023-04-01T10:04:30;12.00;99.90
11840;DHT22;5979;50.800;4.904;2023-04-01T10:10:09;12.00;99.90
11840;DHT22;5979;50.800;4.904;2023-04-01T10:12:47;12.10;99.90
11840;DHT22;5979;50.800;4.904;2023-04-01T10:28:53;12.20;99.90
11840;DHT22;5979;50.800;4.904;2023-04-01T10:31:55;12.20;99.90
11840;DHT22;5979;50.800;4.904;2023-04-01T10:34:44;12.10;99.90
11840;DHT22;5979;50.800;4.904;2023-04-01T10:37:42;12.00;99.90
11840;DHT22;5979;50.800;4.904;2023-04-01T10:43:16;12.10;99.90
11840;DHT22;5979;50.800;4.904;2023-04-01T10:49:10;12.20;99.90
11840;DHT22;5979;50.800;4.904;2023-04-01T10:54:47;12.30;99.90
11840;DHT22;5979;50.800;4.904;2023-04-01T11:00:53;12.60;99.90
11840;DHT22;5979;50.800;4.904;2023-04-01T11:11:23;13.10;99.90
11840;DHT22;5979;50.800;4.904;2023-04-01T11:20:09;13.10;99.90
11840;DHT22;5979;50.800;4.904;2023-04-01T11:25:56;13.20;99.90
11840;DHT22;5979;50.800;4.904;2023-04-01T11:34:15;13.30;99.90
11840;DHT22;5979;50.800;4.904;2023-04-01T11:39:40;13.20;99.90
11840;DHT22;5979;50.800;4.904;2023-04-01T11:42:18;13.30;99.90
11840;DHT22;5979;50.800;4.904;2023-04-01T11:45:08;13.30;99.90
11840;DHT22;5979;50.800;4.904;2023-04-01T12:10:43;13.20;99.90
11840;DHT22;5979;50.800;4.904;2023-04-01T12:23:59;13.00;99.90
11840;DHT22;5979;50.800;4.904;2023-04-01T12:27:06;13.10;99.90
11840;DHT22;5979;50.800;4.904;2023-04-01T12:29:42;13.20;99.90
11840;DHT22;5979;50.800;4.904;2023-04-01T12:32:34;13.30;99.90
11840;DHT22;5979;50.800;4.904;2023-04-01T12:35:21;13.30;99.90
11840;DHT22;5979;50.800;4.904;2023-04-01T12:46:01;13.20;99.90
11840;DHT22;5979;50.800;4.904;2023-04-01T12:54:14;13.10;99.90
11840;DHT22;5979;50.800;4.904;2023-04-01T13:08:08;12.90;99.90
11840;DHT22;5979;50.800;4.904;2023-04-01T13:25:23;12.80;99.90
11840;DHT22;5979;50.800;4.904;2023-04-01T13:27:59;12.90;99.90
11840;DHT22;5979;50.800;4.904;2023-04-01T13:30:35;12.80;99.90
11840;DHT22;5979;50.800;4.904;2023-04-01T13:33:22;12.80;99.90
11840;DHT22;5979;50.800;4.904;2023-04-01T13:44:29;12.90;99.90
11840;DHT22;5979;50.800;4.904;2023-04-01T13:55:39;12.70;99.90
11840;DHT22;5979;50.800;4.904;2023-04-01T14:01:13;12.60;99.90
11840;DHT22;5979;50.800;4.904;2023-04-01T14:03:53;12.50;99.90
11840;DHT22;5979;50.800;4.904;2023-04-01T14:07:06;12.50;99.90
11840;DHT22;5979;50.800;4.904;2023-04-01T14:09:29;12.50;99.90
11840;DHT22;5979;50.800;4.904;2023-04-01T14:12:36;12.50;99.90
11840;DHT22;5979;50.800;4.904;2023-04-01T14:15:29;12.50;99.90
11840;DHT22;5979;50.800;4.904;2023-04-01T14:32:51;13.00;99.90
11840;DHT22;5979;50.800;4.904;2023-04-01T14:35:24;13.00;99.90
11840;DHT22;5979;50.800;4.904;2023-04-01T14:38:28;12.90;99.90
11840;DHT22;5979;50.800;4.904;2023-04-01T14:54:48;12.60;99.90
11840;DHT22;5979;50.800;4.904;2023-04-01T14:57:16;12.50;99.90
11840;DHT22;5979;50.800;4.904;2023-04-01T15:09:26;12.20;99.90
11840;DHT22;5979;50.800;4.904;2023-04-01T15:14:45;12.20;99.90
11840;DHT22;5979;50.800;4.904;2023-04-01T15:20:01;12.30;99.90
11840;DHT22;5979;50.800;4.904;2023-04-01T15:29:01;12.60;99.90
11840;DHT22;5979;50.800;4.904;2023-04-01T15:37:18;12.50;99.90
11840;DHT22;5979;50.800;4.904;2023-04-01T15:49:31;12.40;99.90
11840;DHT22;5979;50.800;4.904;2023-04-01T15:54:57;12.40;99.90
11840;DHT22;5979;50.800;4.904;2023-04-01T15:57:48;12.20;99.90
11840;DHT22;5979;50.800;4.904;2023-04-01T16:00:27;12.20;99.90
11840;DHT22;5979;50.800;4.904;2023-04-01T16:19:05;11.80;99.90
11840;DHT22;5979;50.800;4.904;2023-04-01T16:21:48;11.80;99.90
11840;DHT22;5979;50.800;4.904;2023-04-01T16:26:55;11.70;99.90
11840;DHT22;5979;50.800;4.904;2023-04-01T16:29:27;11.70;99.90
11840;DHT22;5979;50.800;4.904;2023-04-01T16:34:53;11.70;99.90
11840;DHT22;5979;50.800;4.904;2023-04-01T16:37:59;11.70;99.90
11840;DHT22;5979;50.800;4.904;2023-04-01T16:45:38;11.60;99.90
11840;DHT22;5979;50.800;4.904;2023-04-01T16:48:13;11.60;99.90
11840;DHT22;5979;50.800;4.904;2023-04-01T16:53:31;11.50;99.90
11840;DHT22;5979;50.800;4.904;2023-04-01T16:58:39;11.30;99.90
11840;DHT22;5979;50.800;4.904;2023-04-01T17:01:16;11.20;99.90
11840;DHT22;5979;50.800;4.904;2023-04-01T17:03:51;11.10;99.90
11840;DHT22;5979;50.800;4.904;2023-04-01T17:20:12;10.90;99.90
11840;DHT22;5979;50.800;4.904;2023-04-01T17:33:55;10.70;99.90
11840;DHT22;5979;50.800;4.904;2023-04-01T17:36:38;10.70;99.90
11840;DHT22;5979;50.800;4.904;2023-04-01T18:13:27;10.30;99.90
11840;DHT22;5979;50.800;4.904;2023-04-01T18:19:01;10.30;99.90
11840;DHT22;5979;50.800;4.904;2023-04-01T18:21:43;10.30;99.90
11840;DHT22;5979;50.800;4.904;2023-04-01T18:27:04;10.40;99.90
11840;DHT22;5979;50.800;4.904;2023-04-01T18:29:40;10.30;99.90
11840;DHT22;5979;50.800;4.904;2023-04-01T18:32:21;10.20;99.90
11840;DHT22;5979;50.800;4.904;2023-04-01T18:35:27;10.30;99.90
11840;DHT22;5979;50.800;4.904;2023-04-01T18:40:42;10.20;99.90
11840;DHT22;5979;50.800;4.904;2023-04-01T18:43:26;10.30;99.90
11840;DHT22;5979;50.800;4.904;2023-04-01T18:46:12;10.20;99.90
11840;DHT22;5979;50.800;4.904;2023-04-01T18:49:16;10.20;99.90
11840;DHT22;5979;50.800;4.904;2023-04-01T18:54:43;10.20;99.90
11840;DHT22;5979;50.800;4.904;2023-04-01T18:57:18;10.20;99.90
11840;DHT22;5979;50.800;4.904;2023-04-01T18:59:55;10.20;99.90
11840;DHT22;5979;50.800;4.904;2023-04-01T19:02:37;10.20;99.90
11840;DHT22;5979;50.800;4.904;2023-04-01T19:05:10;10.20;99.90
11840;DHT22;5979;50.800;4.904;2023-04-01T19:07:41;10.20;99.90
11840;DHT22;5979;50.800;4.904;2023-04-01T19:23:39;10.00;99.90
11840;DHT22;5979;50.800;4.904;2023-04-01T19:26:34;10.00;99.90
11840;DHT22;5979;50.800;4.904;2023-04-01T19:29:16;10.00;99.90
11840;DHT22;5979;50.800;4.904;2023-04-01T19:38:10;10.00;99.90
11840;DHT22;5979;50.800;4.904;2023-04-01T19:43:39;10.00;99.90
11840;DHT22;5979;50.800;4.904;2023-04-01T19:49:09;9.90;99.90
11840;DHT22;5979;50.800;4.904;2023-04-01T19:51:46;9.80;99.90
11840;DHT22;5979;50.800;4.904;2023-04-01T19:54:30;9.80;99.90
11840;DHT22;5979;50.800;4.904;2023-04-01T20:05:56;9.80;99.90
11840;DHT22;5979;50.800;4.904;2023-04-01T20:08:39;9.80;99.90
11840;DHT22;5979;50.800;4.904;2023-04-01T20:14:19;9.70;99.90
11840;DHT22;5979;50.800;4.904;2023-04-01T20:19:29;9.70;99.90
11840;DHT22;5979;50.800;4.904;2023-04-01T20:21:59;9.70;99.90
11840;DHT22;5979;50.800;4.904;2023-04-01T20:24:33;9.70;99.90
11840;DHT22;5979;50.800;4.904;2023-04-01T20:35:41;9.70;99.90
11840;DHT22;5979;50.800;4.904;2023-04-01T20:44:17;9.60;99.90
11840;DHT22;5979;50.800;4.904;2023-04-01T20:46:54;9.70;99.90
11840;DHT22;5979;50.800;4.904;2023-04-01T20:57:38;9.60;99.90
11840;DHT22;5979;50.800;4.904;2023-04-01T21:06:15;9.60;99.90
11840;DHT22;5979;50.800;4.904;2023-04-01T21:11:50;9.60;99.90
11840;DHT22;5979;50.800;4.904;2023-04-01T21:22:24;9.60;99.90
11840;DHT22;5979;50.800;4.904;2023-04-01T21:31:11;9.60;99.90
11840;DHT22;5979;50.800;4.904;2023-04-01T21:33:50;9.60;99.90
11840;DHT22;5979;50.800;4.904;2023-04-01T21:45:31;9.70;99.90
11840;DHT22;5979;50.800;4.904;2023-04-01T22:10:53;9.70;99.90
11840;DHT22;5979;50.800;4.904;2023-04-01T22:14:09;9.70;99.90
11840;DHT22;5979;50.800;4.904;2023-04-01T22:16:40;9.70;99.90
11840;DHT22;5979;50.800;4.904;2023-04-01T22:19:42;9.70;99.90
11840;DHT22;5979;50.800;4.904;2023-04-01T22:22:19;9.70;99.90
11840;DHT22;5979;50.800;4.904;2023-04-01T22:27:46;9.60;99.90
11840;DHT22;5979;50.800;4.904;2023-04-01T22:30:41;9.60;99.90
11840;DHT22;5979;50.800;4.904;2023-04-01T22:36:13;9.50;99.90
11840;DHT22;5979;50.800;4.904;2023-04-01T22:43:57;9.60;99.90
11840;DHT22;5979;50.800;4.904;2023-04-01T22:49:22;9.50;99.90
11840;DHT22;5979;50.800;4.904;2023-04-01T22:52:05;9.50;99.90
11840;DHT22;5979;50.800;4.904;2023-04-01T22:54:58;9.50;99.90
11840;DHT22;5979;50.800;4.904;2023-04-01T23:03:22;9.40;99.90
11840;DHT22;5979;50.800;4.904;2023-04-01T23:05:52;9.30;99.90
11840;DHT22;5979;50.800;4.904;2023-04-01T23:11:13;9.40;99.90
11840;DHT22;5979;50.800;4.904;2023-04-01T23:16:42;9.20;99.90
11840;DHT22;5979;50.800;4.904;2023-04-01T23:22:23;9.20;99.90
11840;DHT22;5979;50.800;4.904;2023-04-01T23:27:47;9.10;99.90
11840;DHT22;5979;50.800;4.904;2023-04-01T23:38:32;9.00;99.90
11840;DHT22;5979;50.800;4.904;2023-04-01T23:40:59;9.00;99.90
11840;DHT22;5979;50.800;4.904;2023-04-01T23:43:28;9.00;99.90
11840;DHT22;5979;50.800;4.904;2023-04-01T23:45:58;8.90;99.90
11840;DHT22;5979;50.800;4.904;2023-04-01T23:48:32;9.00;99.90
11840;DHT22;5979;50.800;4.904;2023-04-01T23:50:59;9.00;99.90
11840;DHT22;5979;50.800;4.904;2023-04-01T23:53:29;8.90;99.90
11840;DHT22;5979;50.800;4.904;2023-04-01T23:55:56;8.90;99.90
11840;DHT22;5979;50.800;4.904;2023-04-01T23:58:42;8.90;99.90
